sensor_id;sensor_type;location;lat;lon;timestamp;pressure;altitude;pressure_sealevel;temperature;humidity
40730;BME280;26418;50.070;8.436;2022-12-29T00:01:16;99277.22;;;8.75;91.44
40730;BME280;26418;50.070;8.436;2022-12-29T00:03:41;99278.22;;;8.79;91.47
40730;BME280;26418;50.070;8.436;2022-12-29T00:06:07;99276.69;;;8.87;90.98
40730;BME280;26418;50.070;8.436;2022-12-29T00:08:33;99271.78;;;8.89;90.96
40730;BME280;26418;50.070;8.436;2022-12-29T00:11:13;99284.56;;;8.97;90.43
40730;BME280;26418;50.070;8.436;2022-12-29T00:13:39;99276.16;;;8.99;90.00
40730;BME280;26418;50.070;8.436;2022-12-29T00:16:23;99278.56;;;9.00;89.95
40730;BME280;26418;50.070;8.436;2022-12-29T00:18:49;99270.88;;;8.93;90.28
40730;BME280;26418;50.070;8.436;2022-12-29T00:21:16;99280.75;;;8.98;90.07
40730;BME280;26418;50.070;8.436;2022-12-29T00:24:00;99276.81;;;9.04;89.88
40730;BME280;26418;50.070;8.436;2022-12-29T00:26:45;99276.72;;;9.09;89.47
40730;BME280;26418;50.070;8.436;2022-12-29T00:29:30;99274.22;;;9.13;89.18
40730;BME280;26418;50.070;8.436;2022-12-29T00:32:14;99280.47;;;9.22;88.39
40730;BME280;26418;50.070;8.436;2022-12-29T00:34:58;99283.16;;;9.22;88.69
40730;BME280;26418;50.070;8.436;2022-12-29T00:37:42;99282.25;;;9.27;88.81
40730;BME280;26418;50.070;8.436;2022-12-29T00:40:27;99291.91;;;9.28;88.90
40730;BME280;26418;50.070;8.436;2022-12-29T00:43:11;99281.44;;;9.26;88.79
40730;BME280;26418;50.070;8.436;2022-12-29T00:45:55;99278.41;;;9.28;89.12
40730;BME280;26418;50.070;8.436;2022-12-29T00:48:20;99286.41;;;9.33;88.75
40730;BME280;26418;50.070;8.436;2022-12-29T00:51:05;99277.22;;;9.34;88.87
40730;BME280;26418;50.070;8.436;2022-12-29T00:53:30;99282.16;;;9.41;88.81
40730;BME280;26418;50.070;8.436;2022-12-29T00:55:56;99279.00;;;9.39;88.92
40730;BME280;26418;50.070;8.436;2022-12-29T00:58:21;99281.97;;;9.37;89.35
40730;BME280;26418;50.070;8.436;2022-12-29T01:00:47;99271.81;;;9.34;89.65
40730;BME280;26418;50.070;8.436;2022-12-29T01:03:12;99288.97;;;9.38;89.89
40730;BME280;26418;50.070;8.436;2022-12-29T01:05:38;99275.63;;;9.33;90.27
40730;BME280;26418;50.070;8.436;2022-12-29T01:08:04;99267.19;;;9.35;90.47
40730;BME280;26418;50.070;8.436;2022-12-29T01:10:29;99276.28;;;9.39;90.43
40730;BME280;26418;50.070;8.436;2022-12-29T01:12:55;99272.78;;;9.38;90.75
40730;BME280;26418;50.070;8.436;2022-12-29T01:15:20;99267.69;;;9.37;90.89
40730;BME280;26418;50.070;8.436;2022-12-29T01:17:46;99273.41;;;9.35;91.19
40730;BME280;26418;50.070;8.436;2022-12-29T01:20:12;99270.03;;;9.30;91.48
40730;BME280;26418;50.070;8.436;2022-12-29T01:22:38;99276.91;;;9.36;91.67
40730;BME280;26418;50.070;8.436;2022-12-29T01:25:04;99258.16;;;9.31;91.83
40730;BME280;26418;50.070;8.436;2022-12-29T01:27:30;99257.03;;;9.32;91.70
40730;BME280;26418;50.070;8.436;2022-12-29T01:29:55;99264.69;;;9.38;91.96
40730;BME280;26418;50.070;8.436;2022-12-29T01:32:21;99259.28;;;9.38;91.93
40730;BME280;26418;50.070;8.436;2022-12-29T01:34:47;99254.88;;;9.42;92.18
40730;BME280;26418;50.070;8.436;2022-12-29T01:37:12;99255.00;;;9.37;92.25
40730;BME280;26418;50.070;8.436;2022-12-29T01:39:38;99249.31;;;9.39;92.28
40730;BME280;26418;50.070;8.436;2022-12-29T01:42:04;99246.47;;;9.44;92.20
40730;BME280;26418;50.070;8.436;2022-12-29T01:44:51;99253.94;;;9.47;91.93
40730;BME280;26418;50.070;8.436;2022-12-29T01:47:42;99249.34;;;9.48;91.79
40730;BME280;26418;50.070;8.436;2022-12-29T01:50:13;99242.66;;;9.45;92.08
40730;BME280;26418;50.070;8.436;2022-12-29T01:52:54;99253.13;;;9.47;91.92
40730;BME280;26418;50.070;8.436;2022-12-29T01:55:22;99215.81;;;9.40;91.93
40730;BME280;26418;50.070;8.436;2022-12-29T01:57:51;99232.53;;;9.51;91.93
40730;BME280;26418;50.070;8.436;2022-12-29T02:00:18;99236.16;;;9.46;91.67
40730;BME280;26418;50.070;8.436;2022-12-29T02:02:49;99239.03;;;9.50;91.64
40730;BME280;26418;50.070;8.436;2022-12-29T02:05:28;99234.13;;;9.52;91.59
40730;BME280;26418;50.070;8.436;2022-12-29T02:07:57;99228.72;;;9.52;91.61
40730;BME280;26418;50.070;8.436;2022-12-29T02:10:26;99231.91;;;9.54;91.34
40730;BME280;26418;50.070;8.436;2022-12-29T02:12:53;99234.78;;;9.57;91.32
40730;BME280;26418;50.070;8.436;2022-12-29T02:15:31;99227.47;;;9.58;91.21
40730;BME280;26418;50.070;8.436;2022-12-29T02:21:05;99224.16;;;9.61;91.00
40730;BME280;26418;50.070;8.436;2022-12-29T02:26:47;99211.28;;;9.58;91.50
40730;BME280;26418;50.070;8.436;2022-12-29T02:31:59;99212.81;;;9.50;91.57
40730;BME280;26418;50.070;8.436;2022-12-29T02:37:24;99198.66;;;9.44;92.52
40730;BME280;26418;50.070;8.436;2022-12-29T02:42:35;99192.28;;;9.32;93.47
40730;BME280;26418;50.070;8.436;2022-12-29T02:45:51;99188.09;;;9.25;93.91
40730;BME280;26418;50.070;8.436;2022-12-29T02:50:31;99186.81;;;9.23;94.75
40730;BME280;26418;50.070;8.436;2022-12-29T02:53:04;99183.78;;;9.16;94.87
40730;BME280;26418;50.070;8.436;2022-12-29T02:55:30;99175.34;;;9.17;95.30
40730;BME280;26418;50.070;8.436;2022-12-29T03:00:39;99171.06;;;9.16;95.72
40730;BME280;26418;50.070;8.436;2022-12-29T03:06:27;99173.16;;;9.19;96.47
40730;BME280;26418;50.070;8.436;2022-12-29T03:09:35;99172.84;;;9.21;96.33
40730;BME280;26418;50.070;8.436;2022-12-29T03:15:13;99163.78;;;9.17;97.12
40730;BME280;26418;50.070;8.436;2022-12-29T03:18:06;99155.97;;;9.15;97.61
40730;BME280;26418;50.070;8.436;2022-12-29T03:21:39;99151.75;;;9.23;97.42
40730;BME280;26418;50.070;8.436;2022-12-29T03:23:34;99147.78;;;9.20;97.08
40730;BME280;26418;50.070;8.436;2022-12-29T03:26:03;99145.56;;;9.22;96.77
40730;BME280;26418;50.070;8.436;2022-12-29T03:29:00;99145.25;;;9.24;96.82
40730;BME280;26418;50.070;8.436;2022-12-29T03:31:27;99147.81;;;9.29;96.72
40730;BME280;26418;50.070;8.436;2022-12-29T03:33:55;99145.41;;;9.27;96.53
40730;BME280;26418;50.070;8.436;2022-12-29T03:36:35;99140.53;;;9.30;96.40
40730;BME280;26418;50.070;8.436;2022-12-29T03:39:09;99138.59;;;9.30;96.08
40730;BME280;26418;50.070;8.436;2022-12-29T03:41:42;99142.28;;;9.34;95.57
40730;BME280;26418;50.070;8.436;2022-12-29T03:44:10;99133.19;;;9.30;95.86
40730;BME280;26418;50.070;8.436;2022-12-29T03:46:36;99138.00;;;9.33;95.56
40730;BME280;26418;50.070;8.436;2022-12-29T03:49:02;99133.19;;;9.30;95.47
40730;BME280;26418;50.070;8.436;2022-12-29T03:51:28;99134.38;;;9.38;94.93
40730;BME280;26418;50.070;8.436;2022-12-29T03:53:53;99140.84;;;9.37;94.75
40730;BME280;26418;50.070;8.436;2022-12-29T03:56:19;99122.13;;;9.40;94.39
40730;BME280;26418;50.070;8.436;2022-12-29T03:58:44;99121.03;;;9.41;93.93
40730;BME280;26418;50.070;8.436;2022-12-29T04:01:10;99125.50;;;9.46;93.25
40730;BME280;26418;50.070;8.436;2022-12-29T04:03:35;99119.00;;;9.47;92.88
40730;BME280;26418;50.070;8.436;2022-12-29T04:06:01;99123.28;;;9.48;92.73
40730;BME280;26418;50.070;8.436;2022-12-29T04:08:27;99117.25;;;9.51;92.48
40730;BME280;26418;50.070;8.436;2022-12-29T04:10:52;99114.22;;;9.53;92.25
40730;BME280;26418;50.070;8.436;2022-12-29T04:13:18;99123.13;;;9.53;92.07
40730;BME280;26418;50.070;8.436;2022-12-29T04:15:44;99124.41;;;9.56;91.51
40730;BME280;26418;50.070;8.436;2022-12-29T04:18:11;99119.81;;;9.56;91.47
40730;BME280;26418;50.070;8.436;2022-12-29T04:20:36;99121.72;;;9.56;90.95
40730;BME280;26418;50.070;8.436;2022-12-29T04:23:20;99124.75;;;9.63;90.80
40730;BME280;26418;50.070;8.436;2022-12-29T04:25:46;99119.50;;;9.67;90.32
40730;BME280;26418;50.070;8.436;2022-12-29T04:28:15;99112.22;;;9.67;90.04
40730;BME280;26418;50.070;8.436;2022-12-29T04:30:42;99133.00;;;9.67;90.01
40730;BME280;26418;50.070;8.436;2022-12-29T04:33:08;99131.28;;;9.71;89.30
40730;BME280;26418;50.070;8.436;2022-12-29T04:35:33;99129.09;;;9.73;89.12
40730;BME280;26418;50.070;8.436;2022-12-29T04:37:59;99116.34;;;9.73;88.87
40730;BME280;26418;50.070;8.436;2022-12-29T04:40:24;99121.75;;;9.73;88.57
40730;BME280;26418;50.070;8.436;2022-12-29T04:42:50;99126.38;;;9.73;88.49
40730;BME280;26418;50.070;8.436;2022-12-29T04:45:16;99111.63;;;9.79;87.59
40730;BME280;26418;50.070;8.436;2022-12-29T04:47:42;99114.47;;;9.83;87.41
40730;BME280;26418;50.070;8.436;2022-12-29T04:50:08;99110.66;;;9.84;87.25
40730;BME280;26418;50.070;8.436;2022-12-29T04:52:34;99113.50;;;9.79;86.73
40730;BME280;26418;50.070;8.436;2022-12-29T04:55:00;99118.59;;;9.80;86.81
40730;BME280;26418;50.070;8.436;2022-12-29T04:57:25;99123.22;;;9.88;86.38
40730;BME280;26418;50.070;8.436;2022-12-29T04:59:51;99110.03;;;9.78;86.47
40730;BME280;26418;50.070;8.436;2022-12-29T05:02:17;99131.63;;;9.87;87.09
40730;BME280;26418;50.070;8.436;2022-12-29T05:04:43;99128.16;;;9.86;86.96
40730;BME280;26418;50.070;8.436;2022-12-29T05:07:08;99122.41;;;9.88;87.86
40730;BME280;26418;50.070;8.436;2022-12-29T05:09:34;99127.66;;;9.84;88.28
40730;BME280;26418;50.070;8.436;2022-12-29T05:12:00;99121.75;;;9.73;88.93
40730;BME280;26418;50.070;8.436;2022-12-29T05:14:26;99127.94;;;9.74;89.77
40730;BME280;26418;50.070;8.436;2022-12-29T05:16:51;99132.56;;;9.73;89.63
40730;BME280;26418;50.070;8.436;2022-12-29T05:19:17;99142.88;;;9.71;90.13
40730;BME280;26418;50.070;8.436;2022-12-29T05:21:43;99142.41;;;9.69;90.63
40730;BME280;26418;50.070;8.436;2022-12-29T05:24:08;99142.72;;;9.68;91.66
40730;BME280;26418;50.070;8.436;2022-12-29T05:26:34;99135.09;;;9.61;92.46
40730;BME280;26418;50.070;8.436;2022-12-29T05:29:00;99125.22;;;9.56;93.21
40730;BME280;26418;50.070;8.436;2022-12-29T05:31:26;99130.13;;;9.54;93.61
40730;BME280;26418;50.070;8.436;2022-12-29T05:33:51;99131.06;;;9.50;93.80
40730;BME280;26418;50.070;8.436;2022-12-29T05:36:17;99108.66;;;9.40;93.92
40730;BME280;26418;50.070;8.436;2022-12-29T05:38:43;99126.59;;;9.45;93.80
40730;BME280;26418;50.070;8.436;2022-12-29T05:41:09;99123.91;;;9.45;93.52
40730;BME280;26418;50.070;8.436;2022-12-29T05:43:34;99106.44;;;9.42;93.50
40730;BME280;26418;50.070;8.436;2022-12-29T05:46:00;99121.03;;;9.41;93.39
40730;BME280;26418;50.070;8.436;2022-12-29T05:48:26;99122.31;;;9.44;93.27
40730;BME280;26418;50.070;8.436;2022-12-29T05:50:51;99112.00;;;9.46;93.36
40730;BME280;26418;50.070;8.436;2022-12-29T05:53:17;99108.31;;;9.42;92.98
40730;BME280;26418;50.070;8.436;2022-12-29T05:55:47;99099.94;;;9.43;92.92
40730;BME280;26418;50.070;8.436;2022-12-29T05:58:13;99102.16;;;9.41;92.39
40730;BME280;26418;50.070;8.436;2022-12-29T06:00:39;99109.78;;;9.48;92.34
40730;BME280;26418;50.070;8.436;2022-12-29T06:03:05;99107.09;;;9.48;91.86
40730;BME280;26418;50.070;8.436;2022-12-29T06:05:31;99104.41;;;9.48;91.12
40730;BME280;26418;50.070;8.436;2022-12-29T06:07:56;99112.03;;;9.55;90.78
40730;BME280;26418;50.070;8.436;2022-12-29T06:10:22;99117.41;;;9.55;90.22
40730;BME280;26418;50.070;8.436;2022-12-29T06:12:47;99116.94;;;9.53;90.01
40730;BME280;26418;50.070;8.436;2022-12-29T06:15:13;99119.50;;;9.58;89.70
40730;BME280;26418;50.070;8.436;2022-12-29T06:17:39;99109.50;;;9.58;89.27
40730;BME280;26418;50.070;8.436;2022-12-29T06:20:06;99116.66;;;9.63;88.76
40730;BME280;26418;50.070;8.436;2022-12-29T06:22:32;99123.63;;;9.64;88.83
40730;BME280;26418;50.070;8.436;2022-12-29T06:24:58;99105.69;;;9.59;88.64
40730;BME280;26418;50.070;8.436;2022-12-29T06:27:23;99126.66;;;9.71;88.09
40730;BME280;26418;50.070;8.436;2022-12-29T06:29:49;99121.44;;;9.75;87.89
40730;BME280;26418;50.070;8.436;2022-12-29T06:32:15;99125.72;;;9.76;87.69
40730;BME280;26418;50.070;8.436;2022-12-29T06:34:40;99124.00;;;9.80;87.40
40730;BME280;26418;50.070;8.436;2022-12-29T06:37:06;99126.22;;;9.87;86.90
40730;BME280;26418;50.070;8.436;2022-12-29T06:39:32;99106.69;;;9.90;86.64
40730;BME280;26418;50.070;8.436;2022-12-29T06:41:57;99124.97;;;9.93;86.78
40730;BME280;26418;50.070;8.436;2022-12-29T06:44:23;99127.84;;;9.97;86.65
40730;BME280;26418;50.070;8.436;2022-12-29T06:46:49;99118.47;;;10.03;86.36
40730;BME280;26418;50.070;8.436;2022-12-29T06:49:16;99115.13;;;9.97;86.66
40730;BME280;26418;50.070;8.436;2022-12-29T06:51:42;99121.50;;;10.01;86.93
40730;BME280;26418;50.070;8.436;2022-12-29T06:54:08;99103.06;;;9.95;87.71
40730;BME280;26418;50.070;8.436;2022-12-29T06:56:33;99124.66;;;10.03;87.92
40730;BME280;26418;50.070;8.436;2022-12-29T06:58:59;99122.59;;;10.00;88.30
40730;BME280;26418;50.070;8.436;2022-12-29T07:01:26;99130.06;;;9.95;88.70
40730;BME280;26418;50.070;8.436;2022-12-29T07:03:52;99117.34;;;9.86;89.24
40730;BME280;26418;50.070;8.436;2022-12-29T07:06:17;99118.91;;;9.79;89.69
40730;BME280;26418;50.070;8.436;2022-12-29T07:08:43;99114.75;;;9.72;89.91
40730;BME280;26418;50.070;8.436;2022-12-29T07:11:09;99111.56;;;9.70;90.30
40730;BME280;26418;50.070;8.436;2022-12-29T07:13:34;99107.28;;;9.60;90.71
40730;BME280;26418;50.070;8.436;2022-12-29T07:16:05;99109.19;;;9.60;90.80
40730;BME280;26418;50.070;8.436;2022-12-29T07:18:31;99115.38;;;9.60;90.98
40730;BME280;26418;50.070;8.436;2022-12-29T07:20:56;99113.13;;;9.54;91.12
40730;BME280;26418;50.070;8.436;2022-12-29T07:23:22;99113.13;;;9.54;91.32
40730;BME280;26418;50.070;8.436;2022-12-29T07:25:47;99113.28;;;9.49;91.18
40730;BME280;26418;50.070;8.436;2022-12-29T07:28:13;99106.44;;;9.51;91.04
40730;BME280;26418;50.070;8.436;2022-12-29T07:30:39;99106.44;;;9.51;90.64
40730;BME280;26418;50.070;8.436;2022-12-29T07:33:04;99104.56;;;9.60;89.89
40730;BME280;26418;50.070;8.436;2022-12-29T07:35:30;99113.66;;;9.65;89.07
40730;BME280;26418;50.070;8.436;2022-12-29T07:37:55;99106.81;;;9.67;88.67
40730;BME280;26418;50.070;8.436;2022-12-29T07:40:21;99119.56;;;9.75;87.91
40730;BME280;26418;50.070;8.436;2022-12-29T07:42:47;99127.31;;;9.77;87.44
40730;BME280;26418;50.070;8.436;2022-12-29T07:45:12;99132.28;;;9.84;86.54
40730;BME280;26418;50.070;8.436;2022-12-29T07:47:38;99123.56;;;9.96;85.78
40730;BME280;26418;50.070;8.436;2022-12-29T07:50:04;99132.31;;;10.01;85.39
40730;BME280;26418;50.070;8.436;2022-12-29T07:52:29;99123.09;;;10.02;84.93
40730;BME280;26418;50.070;8.436;2022-12-29T07:54:55;99117.53;;;10.07;84.90
40730;BME280;26418;50.070;8.436;2022-12-29T07:57:21;99125.94;;;10.15;84.19
40730;BME280;26418;50.070;8.436;2022-12-29T07:59:46;99120.22;;;10.07;84.27
40730;BME280;26418;50.070;8.436;2022-12-29T08:02:12;99123.09;;;10.11;84.39
40730;BME280;26418;50.070;8.436;2022-12-29T08:04:37;99142.81;;;10.20;84.48
40730;BME280;26418;50.070;8.436;2022-12-29T08:07:03;99142.47;;;10.22;84.69
40730;BME280;26418;50.070;8.436;2022-12-29T08:09:29;99137.56;;;10.24;84.37
40730;BME280;26418;50.070;8.436;2022-12-29T08:11:54;99135.66;;;10.16;84.87
40730;BME280;26418;50.070;8.436;2022-12-29T08:14:20;99149.31;;;10.19;85.01
40730;BME280;26418;50.070;8.436;2022-12-29T08:16:46;99134.38;;;10.22;84.74
40730;BME280;26418;50.070;8.436;2022-12-29T08:19:12;99141.38;;;10.23;84.80
40730;BME280;26418;50.070;8.436;2022-12-29T08:21:38;99143.59;;;10.21;85.05
40730;BME280;26418;50.070;8.436;2022-12-29T08:24:05;99143.28;;;10.14;85.25
40730;BME280;26418;50.070;8.436;2022-12-29T08:26:31;99155.34;;;10.16;85.45
40730;BME280;26418;50.070;8.436;2022-12-29T08:28:56;99166.03;;;10.21;85.76
40730;BME280;26418;50.070;8.436;2022-12-29T08:31:22;99163.63;;;10.20;85.69
40730;BME280;26418;50.070;8.436;2022-12-29T08:33:48;99159.81;;;10.21;85.59
40730;BME280;26418;50.070;8.436;2022-12-29T08:36:14;99174.91;;;10.22;85.30
40730;BME280;26418;50.070;8.436;2022-12-29T08:38:40;99158.06;;;10.16;85.69
40730;BME280;26418;50.070;8.436;2022-12-29T08:41:06;99173.31;;;10.21;86.46
40730;BME280;26418;50.070;8.436;2022-12-29T08:43:31;99176.84;;;10.21;86.38
40730;BME280;26418;50.070;8.436;2022-12-29T08:45:58;99176.50;;;10.14;86.81
40730;BME280;26418;50.070;8.436;2022-12-29T08:48:24;99184.44;;;10.19;87.12
40730;BME280;26418;50.070;8.436;2022-12-29T08:50:50;99168.25;;;10.11;88.62
40730;BME280;26418;50.070;8.436;2022-12-29T08:53:16;99183.97;;;10.09;89.50
40730;BME280;26418;50.070;8.436;2022-12-29T08:55:47;99189.81;;;10.02;90.24
40730;BME280;26418;50.070;8.436;2022-12-29T08:58:19;99192.03;;;10.00;91.17
40730;BME280;26418;50.070;8.436;2022-12-29T09:00:44;99209.81;;;9.92;92.66
40730;BME280;26418;50.070;8.436;2022-12-29T09:03:10;99204.53;;;9.87;93.57
40730;BME280;26418;50.070;8.436;2022-12-29T09:05:36;99210.44;;;9.80;94.53
40730;BME280;26418;50.070;8.436;2022-12-29T09:08:01;99207.56;;;9.77;95.07
40730;BME280;26418;50.070;8.436;2022-12-29T09:10:27;99212.47;;;9.74;95.50
40730;BME280;26418;50.070;8.436;2022-12-29T09:12:53;99215.00;;;9.71;95.78
40730;BME280;26418;50.070;8.436;2022-12-29T09:15:18;99221.50;;;9.70;96.24
40730;BME280;26418;50.070;8.436;2022-12-29T09:17:44;99216.25;;;9.65;96.91
40730;BME280;26418;50.070;8.436;2022-12-29T09:20:11;99220.50;;;9.66;97.52
40730;BME280;26418;50.070;8.436;2022-12-29T09:22:37;99217.53;;;9.67;97.80
40730;BME280;26418;50.070;8.436;2022-12-29T09:25:03;99217.53;;;9.67;97.74
40730;BME280;26418;50.070;8.436;2022-12-29T09:27:29;99221.00;;;9.68;97.98
40730;BME280;26418;50.070;8.436;2022-12-29T09:29:55;99224.19;;;9.70;97.75
40730;BME280;26418;50.070;8.436;2022-12-29T09:32:21;99240.75;;;9.77;97.90
40730;BME280;26418;50.070;8.436;2022-12-29T09:34:46;99250.75;;;9.77;98.23
40730;BME280;26418;50.070;8.436;2022-12-29T09:37:12;99238.38;;;9.75;98.82
40730;BME280;26418;50.070;8.436;2022-12-29T09:39:37;99234.56;;;9.77;99.09
40730;BME280;26418;50.070;8.436;2022-12-29T09:42:08;99240.25;;;9.75;99.34
40730;BME280;26418;50.070;8.436;2022-12-29T09:45:03;99240.75;;;9.77;100.00
40730;BME280;26418;50.070;8.436;2022-12-29T09:47:30;99239.97;;;9.77;100.00
40730;BME280;26418;50.070;8.436;2022-12-29T09:50:02;99243.75;;;9.75;100.00
40730;BME280;26418;50.070;8.436;2022-12-29T09:52:35;99258.09;;;9.85;100.00
40730;BME280;26418;50.070;8.436;2022-12-29T09:55:15;99233.13;;;9.79;100.00
40730;BME280;26418;50.070;8.436;2022-12-29T09:57:49;99249.84;;;9.90;99.86
40730;BME280;26418;50.070;8.436;2022-12-29T10:00:20;99250.81;;;9.94;98.81
40730;BME280;26418;50.070;8.436;2022-12-29T10:02:51;99251.28;;;9.96;98.23
40730;BME280;26418;50.070;8.436;2022-12-29T10:05:24;99239.69;;;9.96;97.36
40730;BME280;26418;50.070;8.436;2022-12-29T10:10:40;99224.75;;;9.89;96.88
40730;BME280;26418;50.070;8.436;2022-12-29T10:22:19;99224.88;;;9.75;95.87
40730;BME280;26418;50.070;8.436;2022-12-29T10:24:48;99229.94;;;9.77;95.10
40730;BME280;26418;50.070;8.436;2022-12-29T10:27:16;99231.22;;;9.80;94.77
40730;BME280;26418;50.070;8.436;2022-12-29T10:29:54;99234.56;;;9.77;94.46
40730;BME280;26418;50.070;8.436;2022-12-29T10:32:32;99245.69;;;9.84;93.92
40730;BME280;26418;50.070;8.436;2022-12-29T10:35:14;99249.41;;;9.97;92.67
40730;BME280;26418;50.070;8.436;2022-12-29T10:40:25;99247.31;;;9.94;91.58
40730;BME280;26418;50.070;8.436;2022-12-29T10:42:55;99251.63;;;9.95;91.35
40730;BME280;26418;50.070;8.436;2022-12-29T10:45:25;99245.09;;;9.96;90.33
40730;BME280;26418;50.070;8.436;2022-12-29T10:48:09;99235.41;;;10.03;90.51
40730;BME280;26418;50.070;8.436;2022-12-29T10:50:37;99241.97;;;10.02;89.74
40730;BME280;26418;50.070;8.436;2022-12-29T10:53:15;99237.06;;;10.13;88.23
40730;BME280;26418;50.070;8.436;2022-12-29T10:55:44;99242.13;;;10.15;87.76
40730;BME280;26418;50.070;8.436;2022-12-29T10:58:12;99239.75;;;10.22;86.43
40730;BME280;26418;50.070;8.436;2022-12-29T11:00:39;99242.97;;;10.24;86.66
40730;BME280;26418;50.070;8.436;2022-12-29T11:05:37;99249.88;;;10.48;85.60
40730;BME280;26418;50.070;8.436;2022-12-29T11:08:15;99250.06;;;10.60;85.42
40730;BME280;26418;50.070;8.436;2022-12-29T11:10:43;99249.72;;;10.70;84.21
40730;BME280;26418;50.070;8.436;2022-12-29T11:13:18;99256.72;;;10.89;83.07
40730;BME280;26418;50.070;8.436;2022-12-29T11:15:46;99257.03;;;10.96;81.96
40730;BME280;26418;50.070;8.436;2022-12-29T11:18:35;99262.75;;;11.12;80.52
40730;BME280;26418;50.070;8.436;2022-12-29T11:21:09;99274.69;;;11.29;79.99
40730;BME280;26418;50.070;8.436;2022-12-29T11:23:59;99280.06;;;11.38;80.09
40730;BME280;26418;50.070;8.436;2022-12-29T11:26:27;99272.91;;;11.42;79.81
40730;BME280;26418;50.070;8.436;2022-12-29T11:31:41;99267.94;;;11.53;80.09
40730;BME280;26418;50.070;8.436;2022-12-29T11:34:08;99272.38;;;11.66;78.49
40730;BME280;26418;50.070;8.436;2022-12-29T11:36:34;99268.34;;;11.81;79.12
40730;BME280;26418;50.070;8.436;2022-12-29T11:39:01;99269.09;;;11.90;77.51
40730;BME280;26418;50.070;8.436;2022-12-29T11:41:30;99278.50;;;12.02;77.02
40730;BME280;26418;50.070;8.436;2022-12-29T11:43:59;99274.81;;;12.06;77.32
40730;BME280;26418;50.070;8.436;2022-12-29T11:46:29;99276.06;;;12.09;76.41
40730;BME280;26418;50.070;8.436;2022-12-29T11:48:58;99275.44;;;12.12;76.11
40730;BME280;26418;50.070;8.436;2022-12-29T11:51:46;99277.19;;;12.08;75.51
40730;BME280;26418;50.070;8.436;2022-12-29T11:54:21;99269.09;;;11.99;75.91
40730;BME280;26418;50.070;8.436;2022-12-29T11:56:48;99267.66;;;11.93;74.85
40730;BME280;26418;50.070;8.436;2022-12-29T11:59:34;99259.22;;;11.94;74.55
40730;BME280;26418;50.070;8.436;2022-12-29T12:04:45;99258.41;;;12.03;74.50
40730;BME280;26418;50.070;8.436;2022-12-29T12:07:15;99260.91;;;12.08;74.76
40730;BME280;26418;50.070;8.436;2022-12-29T12:09:45;99257.22;;;12.13;73.71
40730;BME280;26418;50.070;8.436;2022-12-29T12:12:24;99254.78;;;12.20;73.42
40730;BME280;26418;50.070;8.436;2022-12-29T12:14:56;99259.09;;;12.21;73.25
40730;BME280;26418;50.070;8.436;2022-12-29T12:17:30;99267.75;;;12.14;72.82
40730;BME280;26418;50.070;8.436;2022-12-29T12:20:20;99254.56;;;12.04;72.95
40730;BME280;26418;50.070;8.436;2022-12-29T12:22:52;99262.72;;;12.04;73.03
40730;BME280;26418;50.070;8.436;2022-12-29T12:25:31;99254.09;;;11.93;73.43
40730;BME280;26418;50.070;8.436;2022-12-29T12:28:10;99277.56;;;11.89;73.78
40730;BME280;26418;50.070;8.436;2022-12-29T12:30:46;99238.72;;;11.76;73.21
40730;BME280;26418;50.070;8.436;2022-12-29T12:52:38;99245.25;;;11.27;79.44
40730;BME280;26418;50.070;8.436;2022-12-29T13:00:19;99264.38;;;11.13;82.18
40730;BME280;26418;50.070;8.436;2022-12-29T13:02:58;99241.94;;;11.04;82.04
40730;BME280;26418;50.070;8.436;2022-12-29T13:05:34;99252.44;;;11.14;82.80
40730;BME280;26418;50.070;8.436;2022-12-29T13:10:43;99244.75;;;11.25;82.45
40730;BME280;26418;50.070;8.436;2022-12-29T13:18:59;99242.19;;;11.85;80.53
40730;BME280;26418;50.070;8.436;2022-12-29T13:24:24;99240.91;;;12.21;77.52
40730;BME280;26418;50.070;8.436;2022-12-29T13:26:59;99237.88;;;12.23;76.02
40730;BME280;26418;50.070;8.436;2022-12-29T13:38:45;99252.31;;;12.06;75.10
40730;BME280;26418;50.070;8.436;2022-12-29T13:41:37;99259.06;;;11.91;75.62
40730;BME280;26418;50.070;8.436;2022-12-29T13:44:05;99259.75;;;11.79;76.26
40730;BME280;26418;50.070;8.436;2022-12-29T13:46:38;99260.09;;;11.69;76.22
40730;BME280;26418;50.070;8.436;2022-12-29T13:49:12;99262.19;;;11.63;76.35
40730;BME280;26418;50.070;8.436;2022-12-29T13:51:47;99250.41;;;11.59;76.86
40730;BME280;26418;50.070;8.436;2022-12-29T13:57:10;99257.09;;;11.61;75.93
40730;BME280;26418;50.070;8.436;2022-12-29T13:59:40;99258.84;;;11.57;76.24
40730;BME280;26418;50.070;8.436;2022-12-29T14:02:17;99254.25;;;11.49;76.34
40730;BME280;26418;50.070;8.436;2022-12-29T14:05:01;99252.84;;;11.43;75.72
40730;BME280;26418;50.070;8.436;2022-12-29T14:07:28;99256.53;;;11.38;75.90
40730;BME280;26418;50.070;8.436;2022-12-29T14:09:56;99252.84;;;11.34;76.08
40730;BME280;26418;50.070;8.436;2022-12-29T14:12:40;99269.41;;;11.32;76.03
40730;BME280;26418;50.070;8.436;2022-12-29T14:17:36;99275.34;;;11.17;76.34
40730;BME280;26418;50.070;8.436;2022-12-29T14:20:04;99276.94;;;11.09;77.11
40730;BME280;26418;50.070;8.436;2022-12-29T14:22:32;99279.97;;;10.99;77.64
40730;BME280;26418;50.070;8.436;2022-12-29T14:24:59;99281.56;;;10.91;78.05
40730;BME280;26418;50.070;8.436;2022-12-29T14:27:51;99291.72;;;10.85;78.55
40730;BME280;26418;50.070;8.436;2022-12-29T14:30:49;99298.75;;;10.78;79.13
40730;BME280;26418;50.070;8.436;2022-12-29T14:33:16;99297.00;;;10.73;79.03
40730;BME280;26418;50.070;8.436;2022-12-29T14:35:44;99300.66;;;10.68;77.91
40730;BME280;26418;50.070;8.436;2022-12-29T14:38:20;99301.25;;;10.65;77.52
40730;BME280;26418;50.070;8.436;2022-12-29T14:40:46;99299.38;;;10.66;77.17
40730;BME280;26418;50.070;8.436;2022-12-29T14:43:18;99298.72;;;10.69;76.20
40730;BME280;26418;50.070;8.436;2022-12-29T14:45:53;99306.22;;;10.72;75.65
40730;BME280;26418;50.070;8.436;2022-12-29T14:48:32;99284.56;;;10.63;75.68
40730;BME280;26418;50.070;8.436;2022-12-29T14:50:58;99299.38;;;10.66;75.34
40730;BME280;26418;50.070;8.436;2022-12-29T14:53:48;99291.41;;;10.69;75.00
40730;BME280;26418;50.070;8.436;2022-12-29T14:56:17;99290.78;;;10.73;74.96
40730;BME280;26418;50.070;8.436;2022-12-29T15:01:22;99276.75;;;10.62;74.23
40730;BME280;26418;50.070;8.436;2022-12-29T15:03:51;99283.44;;;10.56;74.40